sensor_id;sensor_type;location;lat;lon;timestamp;P1;durP1;ratioP1;P2;durP2;ratioP2
68432;SDS011;55412;51.350;17.056;2022-12-20T00:01:11;20.77;;;4.80;;
68432;SDS011;55412;51.350;17.056;2022-12-20T00:03:41;24.08;;;7.32;;
68432;SDS011;55412;51.350;17.056;2022-12-20T00:06:09;14.27;;;5.13;;
68432;SDS011;55412;51.350;17.056;2022-12-20T00:08:39;19.55;;;6.63;;
68432;SDS011;55412;51.350;17.056;2022-12-20T00:11:05;14.97;;;5.23;;
68432;SDS011;55412;51.350;17.056;2022-12-20T00:13:33;17.85;;;6.00;;
68432;SDS011;55412;51.350;17.056;2022-12-20T00:16:08;17.30;;;5.88;;
68432;SDS011;55412;51.350;17.056;2022-12-20T00:18:37;15.35;;;6.13;;
68432;SDS011;55412;51.350;17.056;2022-12-20T00:21:06;15.15;;;4.95;;
68432;SDS011;55412;51.350;17.056;2022-12-20T00:23:36;13.60;;;4.50;;
68432;SDS011;55412;51.350;17.056;2022-12-20T00:26:04;17.20;;;5.82;;
68432;SDS011;55412;51.350;17.056;2022-12-20T00:28:34;13.57;;;5.03;;
68432;SDS011;55412;51.350;17.056;2022-12-20T00:31:01;17.23;;;5.05;;
68432;SDS011;55412;51.350;17.056;2022-12-20T00:33:28;13.93;;;5.35;;
68432;SDS011;55412;51.350;17.056;2022-12-20T00:35:55;15.37;;;4.87;;
68432;SDS011;55412;51.350;17.056;2022-12-20T00:38:22;17.35;;;5.95;;
68432;SDS011;55412;51.350;17.056;2022-12-20T00:41:02;21.65;;;7.43;;
68432;SDS011;55412;51.350;17.056;2022-12-20T00:43:31;19.40;;;6.35;;
68432;SDS011;55412;51.350;17.056;2022-12-20T00:45:58;19.13;;;6.65;;
68432;SDS011;55412;51.350;17.056;2022-12-20T00:48:25;17.23;;;6.03;;
68432;SDS011;55412;51.350;17.056;2022-12-20T00:51:00;18.00;;;6.47;;
68432;SDS011;55412;51.350;17.056;2022-12-20T00:53:32;16.92;;;6.38;;
68432;SDS011;55412;51.350;17.056;2022-12-20T00:55:59;16.15;;;5.68;;
68432;SDS011;55412;51.350;17.056;2022-12-20T00:58:26;17.08;;;6.10;;
68432;SDS011;55412;51.350;17.056;2022-12-20T01:00:53;15.00;;;5.67;;
68432;SDS011;55412;51.350;17.056;2022-12-20T01:03:19;14.73;;;5.70;;
68432;SDS011;55412;51.350;17.056;2022-12-20T01:05:52;16.20;;;5.70;;
68432;SDS011;55412;51.350;17.056;2022-12-20T01:08:20;15.15;;;3.97;;
68432;SDS011;55412;51.350;17.056;2022-12-20T01:10:57;13.90;;;5.03;;
68432;SDS011;55412;51.350;17.056;2022-12-20T01:13:28;21.63;;;6.47;;
68432;SDS011;55412;51.350;17.056;2022-12-20T01:15:56;18.83;;;6.65;;
68432;SDS011;55412;51.350;17.056;2022-12-20T01:18:32;12.23;;;4.78;;
68432;SDS011;55412;51.350;17.056;2022-12-20T01:21:00;12.70;;;4.30;;
68432;SDS011;55412;51.350;17.056;2022-12-20T01:23:32;14.57;;;5.25;;
68432;SDS011;55412;51.350;17.056;2022-12-20T01:25:59;15.90;;;5.97;;
68432;SDS011;55412;51.350;17.056;2022-12-20T01:28:28;22.42;;;5.93;;
68432;SDS011;55412;51.350;17.056;2022-12-20T01:30:55;18.05;;;6.55;;
68432;SDS011;55412;51.350;17.056;2022-12-20T01:33:22;18.75;;;5.72;;
68432;SDS011;55412;51.350;17.056;2022-12-20T01:35:58;11.93;;;4.28;;
68432;SDS011;55412;51.350;17.056;2022-12-20T01:38:26;16.07;;;5.03;;
68432;SDS011;55412;51.350;17.056;2022-12-20T01:40:53;17.42;;;5.90;;
68432;SDS011;55412;51.350;17.056;2022-12-20T01:43:21;17.63;;;6.20;;
68432;SDS011;55412;51.350;17.056;2022-12-20T01:45:49;13.55;;;4.55;;
68432;SDS011;55412;51.350;17.056;2022-12-20T01:48:16;13.40;;;4.55;;
68432;SDS011;55412;51.350;17.056;2022-12-20T01:50:48;11.80;;;3.23;;
68432;SDS011;55412;51.350;17.056;2022-12-20T01:53:15;14.50;;;5.55;;
68432;SDS011;55412;51.350;17.056;2022-12-20T01:55:45;13.05;;;4.53;;
68432;SDS011;55412;51.350;17.056;2022-12-20T01:58:12;13.00;;;4.43;;
68432;SDS011;55412;51.350;17.056;2022-12-20T02:00:41;15.25;;;5.68;;
68432;SDS011;55412;51.350;17.056;2022-12-20T02:03:08;12.70;;;4.87;;
68432;SDS011;55412;51.350;17.056;2022-12-20T02:05:39;14.10;;;5.20;;
68432;SDS011;55412;51.350;17.056;2022-12-20T02:08:09;9.43;;;2.78;;
68432;SDS011;55412;51.350;17.056;2022-12-20T02:10:45;11.43;;;4.45;;
68432;SDS011;55412;51.350;17.056;2022-12-20T02:13:53;15.80;;;5.75;;
68432;SDS011;55412;51.350;17.056;2022-12-20T02:32:24;17.90;;;6.40;;
68432;SDS011;55412;51.350;17.056;2022-12-20T02:34:56;18.90;;;6.30;;
68432;SDS011;55412;51.350;17.056;2022-12-20T02:37:23;18.20;;;4.70;;
68432;SDS011;55412;51.350;17.056;2022-12-20T02:39:49;25.38;;;6.47;;
68432;SDS011;55412;51.350;17.056;2022-12-20T02:42:16;15.82;;;5.55;;
68432;SDS011;55412;51.350;17.056;2022-12-20T02:44:49;14.93;;;5.07;;
68432;SDS011;55412;51.350;17.056;2022-12-20T02:47:52;17.55;;;5.82;;
68432;SDS011;55412;51.350;17.056;2022-12-20T02:50:42;13.18;;;3.90;;
68432;SDS011;55412;51.350;17.056;2022-12-20T02:53:16;13.70;;;3.78;;
68432;SDS011;55412;51.350;17.056;2022-12-20T02:58:28;20.33;;;6.20;;
68432;SDS011;55412;51.350;17.056;2022-12-20T03:01:28;8.55;;;3.08;;
68432;SDS011;55412;51.350;17.056;2022-12-20T03:03:58;17.95;;;5.70;;
68432;SDS011;55412;51.350;17.056;2022-12-20T03:06:26;13.32;;;5.18;;
68432;SDS011;55412;51.350;17.056;2022-12-20T03:08:53;15.90;;;5.55;;
68432;SDS011;55412;51.350;17.056;2022-12-20T03:11:19;20.70;;;6.40;;
68432;SDS011;55412;51.350;17.056;2022-12-20T03:13:45;15.13;;;5.10;;
68432;SDS011;55412;51.350;17.056;2022-12-20T03:16:11;19.10;;;6.43;;
68432;SDS011;55412;51.350;17.056;2022-12-20T03:18:37;19.35;;;6.60;;
68432;SDS011;55412;51.350;17.056;2022-12-20T03:21:04;16.70;;;5.23;;
68432;SDS011;55412;51.350;17.056;2022-12-20T03:23:30;21.27;;;6.05;;
68432;SDS011;55412;51.350;17.056;2022-12-20T03:25:56;20.45;;;6.65;;
68432;SDS011;55412;51.350;17.056;2022-12-20T03:28:22;18.20;;;6.15;;
68432;SDS011;55412;51.350;17.056;2022-12-20T03:30:48;14.25;;;5.13;;
68432;SDS011;55412;51.350;17.056;2022-12-20T03:33:14;16.33;;;6.00;;
68432;SDS011;55412;51.350;17.056;2022-12-20T03:35:40;15.85;;;6.05;;
68432;SDS011;55412;51.350;17.056;2022-12-20T03:38:07;18.33;;;6.65;;
68432;SDS011;55412;51.350;17.056;2022-12-20T03:40:33;18.48;;;6.28;;
68432;SDS011;55412;51.350;17.056;2022-12-20T03:42:59;17.23;;;6.05;;
68432;SDS011;55412;51.350;17.056;2022-12-20T03:45:25;17.17;;;5.70;;
68432;SDS011;55412;51.350;17.056;2022-12-20T03:47:50;10.63;;;4.00;;
68432;SDS011;55412;51.350;17.056;2022-12-20T03:50:16;11.82;;;3.97;;
68432;SDS011;55412;51.350;17.056;2022-12-20T03:52:43;13.90;;;4.80;;
68432;SDS011;55412;51.350;17.056;2022-12-20T03:55:09;17.57;;;5.77;;
68432;SDS011;55412;51.350;17.056;2022-12-20T03:57:36;12.50;;;5.22;;
68432;SDS011;55412;51.350;17.056;2022-12-20T04:00:04;15.30;;;4.60;;
68432;SDS011;55412;51.350;17.056;2022-12-20T04:02:31;16.67;;;5.60;;
68432;SDS011;55412;51.350;17.056;2022-12-20T04:04:57;14.77;;;4.77;;
68432;SDS011;55412;51.350;17.056;2022-12-20T04:07:23;14.00;;;3.20;;
68432;SDS011;55412;51.350;17.056;2022-12-20T04:09:49;18.70;;;5.65;;
68432;SDS011;55412;51.350;17.056;2022-12-20T04:12:15;13.20;;;4.53;;
68432;SDS011;55412;51.350;17.056;2022-12-20T04:14:41;10.55;;;4.25;;
68432;SDS011;55412;51.350;17.056;2022-12-20T04:17:07;12.87;;;3.97;;
68432;SDS011;55412;51.350;17.056;2022-12-20T04:19:33;13.07;;;4.68;;
68432;SDS011;55412;51.350;17.056;2022-12-20T04:21:59;16.75;;;6.13;;
68432;SDS011;55412;51.350;17.056;2022-12-20T04:24:25;16.85;;;5.07;;
68432;SDS011;55412;51.350;17.056;2022-12-20T04:26:51;16.38;;;4.90;;
68432;SDS011;55412;51.350;17.056;2022-12-20T04:29:17;15.63;;;4.53;;
68432;SDS011;55412;51.350;17.056;2022-12-20T04:31:43;12.38;;;4.47;;
68432;SDS011;55412;51.350;17.056;2022-12-20T04:34:09;18.10;;;6.13;;
68432;SDS011;55412;51.350;17.056;2022-12-20T04:36:35;20.77;;;6.88;;
68432;SDS011;55412;51.350;17.056;2022-12-20T04:39:01;16.75;;;6.22;;
68432;SDS011;55412;51.350;17.056;2022-12-20T04:41:27;16.20;;;5.30;;
68432;SDS011;55412;51.350;17.056;2022-12-20T04:43:54;17.27;;;6.07;;
68432;SDS011;55412;51.350;17.056;2022-12-20T04:46:22;19.58;;;6.50;;
68432;SDS011;55412;51.350;17.056;2022-12-20T04:48:49;15.07;;;5.32;;
68432;SDS011;55412;51.350;17.056;2022-12-20T04:51:16;17.75;;;6.22;;
68432;SDS011;55412;51.350;17.056;2022-12-20T04:53:43;14.23;;;4.97;;
68432;SDS011;55412;51.350;17.056;2022-12-20T04:56:16;14.20;;;4.82;;
68432;SDS011;55412;51.350;17.056;2022-12-20T04:58:46;18.20;;;4.90;;
68432;SDS011;55412;51.350;17.056;2022-12-20T05:01:15;18.23;;;5.68;;
68432;SDS011;55412;51.350;17.056;2022-12-20T05:03:42;10.32;;;4.07;;
68432;SDS011;55412;51.350;17.056;2022-12-20T05:06:08;11.73;;;3.80;;
68432;SDS011;55412;51.350;17.056;2022-12-20T05:08:34;12.05;;;4.97;;
68432;SDS011;55412;51.350;17.056;2022-12-20T05:11:01;18.73;;;7.43;;
68432;SDS011;55412;51.350;17.056;2022-12-20T05:13:28;14.23;;;4.82;;
68432;SDS011;55412;51.350;17.056;2022-12-20T05:15:55;16.55;;;6.30;;
68432;SDS011;55412;51.350;17.056;2022-12-20T05:18:22;13.90;;;5.23;;
68432;SDS011;55412;51.350;17.056;2022-12-20T05:20:53;15.70;;;4.85;;
68432;SDS011;55412;51.350;17.056;2022-12-20T05:23:39;12.57;;;4.57;;
68432;SDS011;55412;51.350;17.056;2022-12-20T05:26:24;16.80;;;5.65;;
68432;SDS011;55412;51.350;17.056;2022-12-20T05:28:54;12.68;;;4.68;;
68432;SDS011;55412;51.350;17.056;2022-12-20T05:31:20;14.50;;;4.87;;
68432;SDS011;55412;51.350;17.056;2022-12-20T05:33:46;11.70;;;4.22;;
68432;SDS011;55412;51.350;17.056;2022-12-20T05:36:12;10.20;;;4.00;;
68432;SDS011;55412;51.350;17.056;2022-12-20T05:38:38;10.90;;;3.50;;
68432;SDS011;55412;51.350;17.056;2022-12-20T05:41:04;11.52;;;3.78;;
68432;SDS011;55412;51.350;17.056;2022-12-20T05:43:30;19.27;;;7.13;;
68432;SDS011;55412;51.350;17.056;2022-12-20T05:45:57;15.85;;;4.47;;
68432;SDS011;55412;51.350;17.056;2022-12-20T05:48:23;13.82;;;4.65;;
68432;SDS011;55412;51.350;17.056;2022-12-20T05:50:49;12.85;;;4.72;;
68432;SDS011;55412;51.350;17.056;2022-12-20T05:53:15;10.73;;;3.58;;
68432;SDS011;55412;51.350;17.056;2022-12-20T05:55:48;16.23;;;6.07;;
68432;SDS011;55412;51.350;17.056;2022-12-20T05:58:17;18.77;;;6.55;;
68432;SDS011;55412;51.350;17.056;2022-12-20T06:00:43;12.45;;;5.32;;
68432;SDS011;55412;51.350;17.056;2022-12-20T06:03:11;16.40;;;5.63;;
68432;SDS011;55412;51.350;17.056;2022-12-20T06:05:39;16.40;;;6.03;;
68432;SDS011;55412;51.350;17.056;2022-12-20T06:08:07;16.73;;;6.47;;
68432;SDS011;55412;51.350;17.056;2022-12-20T06:10:34;11.20;;;4.10;;
68432;SDS011;55412;51.350;17.056;2022-12-20T06:13:01;15.23;;;5.65;;
68432;SDS011;55412;51.350;17.056;2022-12-20T06:15:27;17.85;;;5.85;;
68432;SDS011;55412;51.350;17.056;2022-12-20T06:17:54;19.52;;;6.60;;
68432;SDS011;55412;51.350;17.056;2022-12-20T06:20:21;12.43;;;5.20;;
68432;SDS011;55412;51.350;17.056;2022-12-20T06:22:47;23.15;;;6.28;;
68432;SDS011;55412;51.350;17.056;2022-12-20T06:25:13;17.73;;;6.55;;
68432;SDS011;55412;51.350;17.056;2022-12-20T06:27:40;16.52;;;5.90;;
68432;SDS011;55412;51.350;17.056;2022-12-20T06:30:07;15.10;;;6.15;;
68432;SDS011;55412;51.350;17.056;2022-12-20T06:32:35;18.00;;;7.20;;
68432;SDS011;55412;51.350;17.056;2022-12-20T06:35:01;17.02;;;5.35;;
68432;SDS011;55412;51.350;17.056;2022-12-20T06:37:27;20.40;;;6.47;;
68432;SDS011;55412;51.350;17.056;2022-12-20T06:39:53;20.48;;;6.65;;
68432;SDS011;55412;51.350;17.056;2022-12-20T06:42:19;19.23;;;6.60;;
68432;SDS011;55412;51.350;17.056;2022-12-20T06:44:45;16.87;;;5.13;;
68432;SDS011;55412;51.350;17.056;2022-12-20T06:47:11;18.45;;;6.20;;
68432;SDS011;55412;51.350;17.056;2022-12-20T06:49:37;21.55;;;5.65;;
68432;SDS011;55412;51.350;17.056;2022-12-20T06:52:03;14.32;;;4.50;;
68432;SDS011;55412;51.350;17.056;2022-12-20T06:54:29;17.27;;;6.87;;
68432;SDS011;55412;51.350;17.056;2022-12-20T06:56:55;16.50;;;6.05;;
68432;SDS011;55412;51.350;17.056;2022-12-20T06:59:21;17.02;;;5.63;;
68432;SDS011;55412;51.350;17.056;2022-12-20T07:01:47;15.02;;;5.65;;
68432;SDS011;55412;51.350;17.056;2022-12-20T07:04:13;20.75;;;7.65;;
68432;SDS011;55412;51.350;17.056;2022-12-20T07:06:39;16.93;;;6.13;;
68432;SDS011;55412;51.350;17.056;2022-12-20T07:09:05;23.27;;;7.00;;
68432;SDS011;55412;51.350;17.056;2022-12-20T07:11:33;17.40;;;5.22;;
68432;SDS011;55412;51.350;17.056;2022-12-20T07:13:59;21.52;;;8.73;;
68432;SDS011;55412;51.350;17.056;2022-12-20T07:16:25;17.77;;;6.93;;
68432;SDS011;55412;51.350;17.056;2022-12-20T07:18:51;23.50;;;6.75;;
68432;SDS011;55412;51.350;17.056;2022-12-20T07:21:18;17.58;;;6.32;;
68432;SDS011;55412;51.350;17.056;2022-12-20T07:23:45;18.38;;;5.68;;
68432;SDS011;55412;51.350;17.056;2022-12-20T07:26:12;23.90;;;7.97;;
68432;SDS011;55412;51.350;17.056;2022-12-20T07:28:39;21.57;;;7.33;;
68432;SDS011;55412;51.350;17.056;2022-12-20T07:31:05;21.27;;;6.90;;
68432;SDS011;55412;51.350;17.056;2022-12-20T07:33:31;19.88;;;6.47;;
68432;SDS011;55412;51.350;17.056;2022-12-20T07:36:05;16.95;;;6.05;;
68432;SDS011;55412;51.350;17.056;2022-12-20T07:38:36;18.08;;;6.18;;
68432;SDS011;55412;51.350;17.056;2022-12-20T07:41:06;17.70;;;6.33;;
68432;SDS011;55412;51.350;17.056;2022-12-20T07:43:41;16.33;;;6.03;;
68432;SDS011;55412;51.350;17.056;2022-12-20T07:46:07;22.10;;;6.93;;
68432;SDS011;55412;51.350;17.056;2022-12-20T07:48:36;19.15;;;7.28;;
68432;SDS011;55412;51.350;17.056;2022-12-20T07:51:05;16.20;;;5.97;;
68432;SDS011;55412;51.350;17.056;2022-12-20T07:53:49;20.53;;;7.27;;
68432;SDS011;55412;51.350;17.056;2022-12-20T07:56:21;24.63;;;8.10;;
68432;SDS011;55412;51.350;17.056;2022-12-20T07:58:48;24.98;;;7.43;;
68432;SDS011;55412;51.350;17.056;2022-12-20T08:01:20;15.57;;;5.95;;
68432;SDS011;55412;51.350;17.056;2022-12-20T08:03:46;18.98;;;6.88;;
68432;SDS011;55412;51.350;17.056;2022-12-20T08:06:16;21.67;;;7.30;;
68432;SDS011;55412;51.350;17.056;2022-12-20T08:08:48;20.48;;;6.20;;
68432;SDS011;55412;51.350;17.056;2022-12-20T08:11:19;12.38;;;3.97;;
68432;SDS011;55412;51.350;17.056;2022-12-20T08:13:48;13.43;;;4.72;;
68432;SDS011;55412;51.350;17.056;2022-12-20T08:16:15;13.30;;;4.72;;
68432;SDS011;55412;51.350;17.056;2022-12-20T08:18:41;12.63;;;5.10;;
68432;SDS011;55412;51.350;17.056;2022-12-20T08:21:07;18.45;;;5.80;;
68432;SDS011;55412;51.350;17.056;2022-12-20T08:23:34;19.30;;;6.10;;
68432;SDS011;55412;51.350;17.056;2022-12-20T08:26:00;17.25;;;5.78;;
68432;SDS011;55412;51.350;17.056;2022-12-20T08:28:27;13.30;;;4.78;;
68432;SDS011;55412;51.350;17.056;2022-12-20T08:30:58;19.43;;;6.37;;
68432;SDS011;55412;51.350;17.056;2022-12-20T08:33:29;20.52;;;7.22;;
68432;SDS011;55412;51.350;17.056;2022-12-20T08:36:01;22.20;;;8.32;;
68432;SDS011;55412;51.350;17.056;2022-12-20T08:38:30;15.18;;;6.18;;
68432;SDS011;55412;51.350;17.056;2022-12-20T08:41:09;19.20;;;6.45;;
68432;SDS011;55412;51.350;17.056;2022-12-20T08:43:38;17.67;;;5.93;;
68432;SDS011;55412;51.350;17.056;2022-12-20T08:46:06;18.23;;;6.07;;
68432;SDS011;55412;51.350;17.056;2022-12-20T08:48:34;16.83;;;5.43;;
68432;SDS011;55412;51.350;17.056;2022-12-20T08:51:02;20.95;;;6.63;;
68432;SDS011;55412;51.350;17.056;2022-12-20T08:53:32;17.75;;;6.50;;
68432;SDS011;55412;51.350;17.056;2022-12-20T08:56:07;17.53;;;5.50;;
68432;SDS011;55412;51.350;17.056;2022-12-20T08:58:39;15.93;;;5.07;;
68432;SDS011;55412;51.350;17.056;2022-12-20T09:01:08;14.60;;;4.78;;
68432;SDS011;55412;51.350;17.056;2022-12-20T09:03:38;18.10;;;6.93;;
68432;SDS011;55412;51.350;17.056;2022-12-20T09:06:06;11.77;;;4.60;;
68432;SDS011;55412;51.350;17.056;2022-12-20T09:08:36;14.33;;;4.33;;
68432;SDS011;55412;51.350;17.056;2022-12-20T09:11:05;17.52;;;6.50;;
68432;SDS011;55412;51.350;17.056;2022-12-20T09:13:38;18.80;;;5.88;;
68432;SDS011;55412;51.350;17.056;2022-12-20T09:16:09;17.83;;;4.28;;
68432;SDS011;55412;51.350;17.056;2022-12-20T09:18:38;9.70;;;2.78;;
68432;SDS011;55412;51.350;17.056;2022-12-20T09:21:04;21.70;;;7.17;;
68432;SDS011;55412;51.350;17.056;2022-12-20T09:23:32;17.25;;;5.90;;
68432;SDS011;55412;51.350;17.056;2022-12-20T09:26:00;12.15;;;4.13;;
68432;SDS011;55412;51.350;17.056;2022-12-20T09:28:28;17.60;;;5.68;;
68432;SDS011;55412;51.350;17.056;2022-12-20T09:30:58;18.58;;;6.43;;
68432;SDS011;55412;51.350;17.056;2022-12-20T09:33:26;15.83;;;5.40;;
68432;SDS011;55412;51.350;17.056;2022-12-20T09:35:54;11.65;;;3.38;;
68432;SDS011;55412;51.350;17.056;2022-12-20T09:38:21;16.05;;;5.93;;
68432;SDS011;55412;51.350;17.056;2022-12-20T09:40:52;23.23;;;6.43;;
68432;SDS011;55412;51.350;17.056;2022-12-20T09:43:21;28.20;;;6.70;;
68432;SDS011;55412;51.350;17.056;2022-12-20T09:45:52;22.23;;;7.03;;
68432;SDS011;55412;51.350;17.056;2022-12-20T09:48:23;24.20;;;6.63;;
68432;SDS011;55412;51.350;17.056;2022-12-20T09:56:57;19.80;;;6.72;;
68432;SDS011;55412;51.350;17.056;2022-12-20T09:59:36;19.23;;;7.27;;
68432;SDS011;55412;51.350;17.056;2022-12-20T10:02:15;19.77;;;6.78;;
68432;SDS011;55412;51.350;17.056;2022-12-20T10:04:46;15.02;;;6.10;;
68432;SDS011;55412;51.350;17.056;2022-12-20T10:07:36;17.85;;;5.63;;
68432;SDS011;55412;51.350;17.056;2022-12-20T10:10:33;20.80;;;8.65;;
68432;SDS011;55412;51.350;17.056;2022-12-20T10:22:06;19.70;;;7.30;;
68432;SDS011;55412;51.350;17.056;2022-12-20T10:24:44;22.70;;;6.93;;
68432;SDS011;55412;51.350;17.056;2022-12-20T10:27:20;15.13;;;4.40;;
68432;SDS011;55412;51.350;17.056;2022-12-20T10:29:47;21.85;;;6.53;;
68432;SDS011;55412;51.350;17.056;2022-12-20T10:32:16;24.45;;;8.05;;
68432;SDS011;55412;51.350;17.056;2022-12-20T10:34:56;26.80;;;8.77;;
68432;SDS011;55412;51.350;17.056;2022-12-20T10:37:35;25.67;;;8.70;;
68432;SDS011;55412;51.350;17.056;2022-12-20T10:40:02;19.53;;;7.03;;
68432;SDS011;55412;51.350;17.056;2022-12-20T10:42:37;21.20;;;7.43;;
68432;SDS011;55412;51.350;17.056;2022-12-20T10:47:40;25.65;;;8.35;;
68432;SDS011;55412;51.350;17.056;2022-12-20T10:50:14;27.25;;;8.57;;
68432;SDS011;55412;51.350;17.056;2022-12-20T10:52:45;17.83;;;6.07;;
68432;SDS011;55412;51.350;17.056;2022-12-20T10:55:48;17.75;;;7.15;;
68432;SDS011;55412;51.350;17.056;2022-12-20T10:58:35;20.25;;;6.53;;
68432;SDS011;55412;51.350;17.056;2022-12-20T11:01:05;20.08;;;7.00;;
68432;SDS011;55412;51.350;17.056;2022-12-20T11:03:57;26.15;;;8.55;;
68432;SDS011;55412;51.350;17.056;2022-12-20T11:06:29;25.17;;;8.50;;
68432;SDS011;55412;51.350;17.056;2022-12-20T11:12:11;27.27;;;8.35;;
68432;SDS011;55412;51.350;17.056;2022-12-20T11:14:39;18.33;;;6.28;;
68432;SDS011;55412;51.350;17.056;2022-12-20T11:25:37;26.17;;;8.73;;
68432;SDS011;55412;51.350;17.056;2022-12-20T11:34:38;24.83;;;8.07;;
68432;SDS011;55412;51.350;17.056;2022-12-20T11:37:33;24.92;;;8.30;;
68432;SDS011;55412;51.350;17.056;2022-12-20T11:40:19;27.95;;;10.27;;
68432;SDS011;55412;51.350;17.056;2022-12-20T11:49:41;21.40;;;5.85;;
68432;SDS011;55412;51.350;17.056;2022-12-20T11:52:38;22.27;;;7.28;;
68432;SDS011;55412;51.350;17.056;2022-12-20T11:55:32;27.98;;;9.80;;
68432;SDS011;55412;51.350;17.056;2022-12-20T12:00:37;28.63;;;9.35;;
68432;SDS011;55412;51.350;17.056;2022-12-20T12:03:20;29.20;;;8.27;;
68432;SDS011;55412;51.350;17.056;2022-12-20T12:06:03;24.80;;;9.18;;
68432;SDS011;55412;51.350;17.056;2022-12-20T12:08:55;30.50;;;11.48;;
68432;SDS011;55412;51.350;17.056;2022-12-20T12:11:53;29.08;;;10.68;;
68432;SDS011;55412;51.350;17.056;2022-12-20T12:17:56;27.73;;;8.77;;
68432;SDS011;55412;51.350;17.056;2022-12-20T12:23:43;26.48;;;9.40;;
68432;SDS011;55412;51.350;17.056;2022-12-20T12:26:36;24.08;;;9.02;;
68432;SDS011;55412;51.350;17.056;2022-12-20T12:43:45;25.15;;;8.95;;
68432;SDS011;55412;51.350;17.056;2022-12-20T12:46:13;23.30;;;8.33;;
68432;SDS011;55412;51.350;17.056;2022-12-20T12:51:27;23.58;;;8.20;;
68432;SDS011;55412;51.350;17.056;2022-12-20T12:56:47;22.15;;;8.05;;
68432;SDS011;55412;51.350;17.056;2022-12-20T12:59:23;25.07;;;8.23;;
68432;SDS011;55412;51.350;17.056;2022-12-20T13:17:53;28.08;;;9.57;;
68432;SDS011;55412;51.350;17.056;2022-12-20T13:20:44;27.20;;;9.77;;
68432;SDS011;55412;51.350;17.056;2022-12-20T13:27:02;21.67;;;7.93;;
68432;SDS011;55412;51.350;17.056;2022-12-20T13:30:38;25.02;;;8.60;;
68432;SDS011;55412;51.350;17.056;2022-12-20T13:37:51;22.92;;;8.68;;
68432;SDS011;55412;51.350;17.056;2022-12-20T13:41:31;26.97;;;7.63;;
68432;SDS011;55412;51.350;17.056;2022-12-20T13:49:35;24.52;;;8.20;;
68432;SDS011;55412;51.350;17.056;2022-12-20T13:52:50;19.23;;;6.90;;
68432;SDS011;55412;51.350;17.056;2022-12-20T13:54:58;26.90;;;9.90;;
68432;SDS011;55412;51.350;17.056;2022-12-20T13:57:31;23.23;;;8.55;;
68432;SDS011;55412;51.350;17.056;2022-12-20T14:00:11;27.15;;;10.07;;
68432;SDS011;55412;51.350;17.056;2022-12-20T14:02:43;24.25;;;8.13;;
68432;SDS011;55412;51.350;17.056;2022-12-20T14:05:16;22.90;;;8.30;;
68432;SDS011;55412;51.350;17.056;2022-12-20T14:08:00;28.47;;;9.67;;
68432;SDS011;55412;51.350;17.056;2022-12-20T14:10:33;29.02;;;10.48;;
68432;SDS011;55412;51.350;17.056;2022-12-20T14:13:00;32.13;;;10.73;;
68432;SDS011;55412;51.350;17.056;2022-12-20T14:15:34;30.20;;;9.68;;
68432;SDS011;55412;51.350;17.056;2022-12-20T14:18:04;30.10;;;9.45;;
68432;SDS011;55412;51.350;17.056;2022-12-20T14:20:40;25.33;;;9.67;;
68432;SDS011;55412;51.350;17.056;2022-12-20T14:23:10;32.97;;;9.90;;
68432;SDS011;55412;51.350;17.056;2022-12-20T14:25:44;30.55;;;11.38;;
68432;SDS011;55412;51.350;17.056;2022-12-20T14:28:24;29.60;;;10.15;;
68432;SDS011;55412;51.350;17.056;2022-12-20T14:34:04;28.27;;;10.30;;
68432;SDS011;55412;51.350;17.056;2022-12-20T14:36:43;28.20;;;10.35;;
68432;SDS011;55412;51.350;17.056;2022-12-20T14:41:57;29.55;;;11.13;;
68432;SDS011;55412;51.350;17.056;2022-12-20T14:44:43;28.40;;;10.38;;
68432;SDS011;55412;51.350;17.056;2022-12-20T14:47:26;25.97;;;8.93;;
68432;SDS011;55412;51.350;17.056;2022-12-20T14:49:54;27.42;;;9.65;;
68432;SDS011;55412;51.350;17.056;2022-12-20T14:52:32;19.08;;;7.03;;
68432;SDS011;55412;51.350;17.056;2022-12-20T14:55:07;30.77;;;9.95;;
68432;SDS011;55412;51.350;17.056;2022-12-20T14:57:45;22.50;;;8.13;;
68432;SDS011;55412;51.350;17.056;2022-12-20T15:02:48;25.63;;;10.02;;
68432;SDS011;55412;51.350;17.056;2022-12-20T15:13:34;31.17;;;10.87;;
68432;SDS011;55412;51.350;17.056;2022-12-20T15:16:28;32.95;;;11.35;;
68432;SDS011;55412;51.350;17.056;2022-12-20T15:21:28;35.80;;;11.38;;
68432;SDS011;55412;51.350;17.056;2022-12-20T15:24:07;25.60;;;9.00;;
68432;SDS011;55412;51.350;17.056;2022-12-20T15:26:37;33.10;;;11.17;;
68432;SDS011;55412;51.350;17.056;2022-12-20T15:29:04;27.88;;;10.65;;
68432;SDS011;55412;51.350;17.056;2022-12-20T15:31:31;27.70;;;10.20;;
68432;SDS011;55412;51.350;17.056;2022-12-20T15:33:59;30.88;;;10.73;;
68432;SDS011;55412;51.350;17.056;2022-12-20T15:36:37;26.60;;;10.50;;
68432;SDS011;55412;51.350;17.056;2022-12-20T15:39:03;27.47;;;10.47;;
68432;SDS011;55412;51.350;17.056;2022-12-20T15:41:30;37.33;;;12.40;;
68432;SDS011;55412;51.350;17.056;2022-12-20T15:43:59;32.47;;;11.10;;
68432;SDS011;55412;51.350;17.056;2022-12-20T15:46:31;31.50;;;10.13;;
68432;SDS011;55412;51.350;17.056;2022-12-20T15:48:57;31.00;;;11.55;;
68432;SDS011;55412;51.350;17.056;2022-12-20T15:51:30;24.90;;;9.60;;
68432;SDS011;55412;51.350;17.056;2022-12-20T15:53:59;24.75;;;10.27;;
68432;SDS011;55412;51.350;17.056;2022-12-20T15:56:29;21.52;;;6.85;;
68432;SDS011;55412;51.350;17.056;2022-12-20T15:58:55;27.52;;;9.52;;
68432;SDS011;55412;51.350;17.056;2022-12-20T16:01:26;30.75;;;11.43;;
68432;SDS011;55412;51.350;17.056;2022-12-20T16:04:00;29.57;;;10.53;;
68432;SDS011;55412;51.350;17.056;2022-12-20T16:06:26;25.27;;;9.98;;
68432;SDS011;55412;51.350;17.056;2022-12-20T16:08:52;23.02;;;8.50;;
68432;SDS011;55412;51.350;17.056;2022-12-20T16:11:20;22.70;;;7.57;;
68432;SDS011;55412;51.350;17.056;2022-12-20T16:13:49;22.73;;;8.98;;
68432;SDS011;55412;51.350;17.056;2022-12-20T16:16:17;26.97;;;9.87;;
68432;SDS011;55412;51.350;17.056;2022-12-20T16:18:45;29.90;;;10.05;;
68432;SDS011;55412;51.350;17.056;2022-12-20T16:21:45;29.83;;;10.50;;
68432;SDS011;55412;51.350;17.056;2022-12-20T16:24:13;25.27;;;9.05;;
68432;SDS011;55412;51.350;17.056;2022-12-20T16:26:41;26.27;;;9.07;;
68432;SDS011;55412;51.350;17.056;2022-12-20T16:29:08;27.43;;;9.23;;
68432;SDS011;55412;51.350;17.056;2022-12-20T16:31:35;19.00;;;5.97;;
68432;SDS011;55412;51.350;17.056;2022-12-20T16:34:04;15.68;;;6.13;;
68432;SDS011;55412;51.350;17.056;2022-12-20T16:36:37;27.60;;;9.25;;
68432;SDS011;55412;51.350;17.056;2022-12-20T16:39:03;21.42;;;7.95;;
68432;SDS011;55412;51.350;17.056;2022-12-20T16:41:30;25.90;;;9.63;;
68432;SDS011;55412;51.350;17.056;2022-12-20T16:43:59;25.00;;;7.93;;
68432;SDS011;55412;51.350;17.056;2022-12-20T16:46:27;21.70;;;8.43;;
68432;SDS011;55412;51.350;17.056;2022-12-20T16:48:55;19.60;;;6.53;;
68432;SDS011;55412;51.350;17.056;2022-12-20T16:51:27;27.05;;;8.70;;
68432;SDS011;55412;51.350;17.056;2022-12-20T16:54:22;37.10;;;11.77;;
68432;SDS011;55412;51.350;17.056;2022-12-20T16:56:49;29.48;;;8.40;;
68432;SDS011;55412;51.350;17.056;2022-12-20T16:59:19;26.15;;;9.32;;
68432;SDS011;55412;51.350;17.056;2022-12-20T17:01:46;28.27;;;9.95;;
68432;SDS011;55412;51.350;17.056;2022-12-20T17:04:19;27.02;;;9.80;;